createdAt,value
2018-09-15T00:00:37.997Z,14.90
2018-09-15T00:03:06.764Z,14.90
2018-09-15T00:05:35.014Z,15.00
2018-09-15T00:08:03.232Z,15.00
2018-09-15T00:10:31.609Z,15.00
2018-09-15T00:12:59.858Z,15.00
2018-09-15T00:15:28.257Z,15.00
2018-09-15T00:17:57.030Z,15.00
2018-09-15T00:20:25.308Z,15.00
2018-09-15T00:22:53.602Z,15.00
2018-09-15T00:25:21.996Z,15.00
2018-09-15T00:27:50.488Z,15.00
2018-09-15T00:30:18.729Z,15.00
2018-09-15T00:32:47.103Z,15.00
2018-09-15T00:35:15.352Z,15.00
2018-09-15T00:37:43.588Z,15.00
2018-09-15T00:40:11.929Z,15.00
2018-09-15T00:42:40.942Z,15.00
2018-09-15T00:45:09.233Z,15.00
2018-09-15T00:47:37.713Z,15.10
2018-09-15T00:50:06.754Z,15.00
2018-09-15T00:52:34.956Z,15.00
2018-09-15T00:55:03.829Z,15.00
2018-09-15T00:57:32.040Z,15.00
2018-09-15T01:00:00.457Z,15.00
2018-09-15T01:02:28.656Z,15.00
2018-09-15T01:04:57.045Z,15.00
2018-09-15T01:07:25.242Z,15.10
2018-09-15T01:09:53.441Z,15.00
2018-09-15T01:12:21.743Z,15.00
2018-09-15T01:14:49.952Z,15.00
2018-09-15T01:17:18.220Z,15.00
2018-09-15T01:19:46.700Z,14.90
2018-09-15T01:22:15.261Z,14.90
2018-09-15T01:24:43.667Z,14.90
2018-09-15T01:27:12.146Z,14.90
2018-09-15T01:29:40.507Z,14.90
2018-09-15T01:32:08.732Z,14.90
2018-09-15T01:34:37.224Z,14.90
2018-09-15T01:37:05.541Z,15.00
2018-09-15T01:39:33.759Z,15.00
2018-09-15T01:42:02.551Z,15.00
2018-09-15T01:44:30.940Z,15.00
2018-09-15T01:46:59.151Z,15.00
2018-09-15T01:49:27.965Z,15.10
2018-09-15T01:51:56.269Z,15.10
2018-09-15T01:54:24.463Z,15.10
2018-09-15T01:56:53.393Z,15.10
2018-09-15T01:59:21.812Z,15.20
2018-09-15T02:01:50.015Z,15.20
2018-09-15T02:04:18.202Z,15.20
2018-09-15T02:06:46.508Z,15.20
2018-09-15T02:09:15.096Z,15.30
2018-09-15T02:11:44.098Z,15.30
2018-09-15T02:14:13.447Z,15.30
2018-09-15T02:16:42.626Z,15.30
2018-09-15T02:19:10.931Z,15.30
2018-09-15T02:21:39.142Z,15.30
2018-09-15T02:24:07.526Z,15.30
2018-09-15T02:26:36.059Z,15.30
2018-09-15T02:29:04.298Z,15.20
2018-09-15T02:31:33.362Z,15.20
2018-09-15T02:34:01.822Z,15.20
2018-09-15T02:36:30.112Z,15.20
2018-09-15T02:38:58.309Z,15.20
2018-09-15T02:41:26.898Z,15.10
2018-09-15T02:43:56.836Z,15.00
2018-09-15T02:46:25.456Z,15.00
2018-09-15T02:48:53.660Z,14.90
2018-09-15T02:51:22.941Z,14.90
2018-09-15T02:53:51.388Z,14.80
2018-09-15T02:56:19.589Z,14.70
2018-09-15T02:58:47.873Z,14.70
2018-09-15T03:01:16.492Z,14.70
2018-09-15T03:03:44.725Z,14.70
2018-09-15T03:06:13.089Z,14.60
2018-09-15T03:08:41.375Z,14.60
2018-09-15T03:11:09.600Z,14.60
2018-09-15T03:13:38.313Z,14.50
2018-09-15T03:16:06.573Z,14.50
2018-09-15T03:18:34.797Z,14.40
2018-09-15T03:21:03.149Z,14.40
2018-09-15T03:23:31.977Z,14.30
2018-09-15T03:26:00.183Z,14.30
2018-09-15T03:28:28.517Z,14.30
2018-09-15T03:30:57.102Z,14.30
2018-09-15T03:33:25.366Z,14.30
2018-09-15T03:35:53.630Z,14.30
2018-09-15T03:38:22.139Z,14.20
2018-09-15T03:40:50.373Z,14.20
2018-09-15T03:43:18.562Z,14.20
2018-09-15T03:45:46.886Z,14.20
2018-09-15T03:48:15.262Z,14.20
2018-09-15T03:50:43.457Z,14.20
2018-09-15T03:53:12.395Z,14.20
2018-09-15T03:55:40.814Z,14.20
2018-09-15T03:58:09.029Z,14.20
2018-09-15T04:00:37.652Z,14.30
2018-09-15T04:03:06.449Z,14.30
2018-09-15T04:05:34.716Z,14.30
2018-09-15T04:08:03.817Z,14.30
2018-09-15T04:10:32.440Z,14.30
2018-09-15T04:13:00.844Z,14.30
2018-09-15T04:15:29.046Z,14.30
2018-09-15T04:17:57.555Z,14.40
2018-09-15T04:20:25.877Z,14.40
2018-09-15T04:22:54.092Z,14.40
2018-09-15T04:25:22.473Z,14.50
2018-09-15T04:27:50.753Z,14.60
2018-09-15T04:30:18.953Z,14.60
2018-09-15T04:32:47.383Z,14.60
2018-09-15T04:35:15.761Z,14.60
2018-09-15T04:37:43.985Z,14.60
2018-09-15T04:40:12.439Z,14.60
2018-09-15T04:42:40.697Z,14.60
2018-09-15T04:45:09.169Z,14.60
2018-09-15T04:47:37.568Z,14.70
2018-09-15T04:50:05.897Z,14.60
2018-09-15T04:52:34.185Z,14.70
2018-09-15T04:55:02.440Z,14.70
2018-09-15T04:57:31.182Z,14.70
2018-09-15T04:59:59.394Z,14.70
2018-09-15T05:02:28.028Z,14.70
2018-09-15T05:04:56.224Z,14.70
2018-09-15T05:07:24.433Z,14.70
2018-09-15T05:09:52.653Z,14.80
2018-09-15T05:12:21.409Z,14.80
2018-09-15T05:14:49.608Z,14.90
2018-09-15T05:17:17.905Z,14.90
2018-09-15T05:19:46.129Z,14.90
2018-09-15T05:22:14.356Z,14.90
2018-09-15T05:24:42.660Z,14.90
2018-09-15T05:27:10.901Z,15.00
2018-09-15T05:29:39.144Z,15.00
2018-09-15T05:32:07.377Z,15.00
2018-09-15T05:34:35.736Z,15.00
2018-09-15T05:37:04.026Z,15.10
2018-09-15T05:39:32.236Z,15.10
2018-09-15T05:42:00.605Z,15.10
2018-09-15T05:44:28.872Z,15.20
2018-09-15T05:46:57.151Z,15.20
2018-09-15T05:49:25.344Z,15.20
2018-09-15T05:51:53.577Z,15.30
2018-09-15T05:54:21.808Z,15.40
2018-09-15T05:56:50.089Z,15.40
2018-09-15T05:59:18.286Z,15.40
2018-09-15T06:01:46.616Z,15.50
2018-09-15T06:04:14.740Z,15.50
2018-09-15T06:06:42.993Z,15.60
2018-09-15T06:09:12.363Z,15.60
2018-09-15T06:11:41.028Z,15.60
2018-09-15T06:14:09.230Z,15.60
2018-09-15T06:16:37.475Z,15.60
2018-09-15T06:19:06.760Z,15.70
2018-09-15T06:21:35.493Z,15.80
2018-09-15T06:24:04.213Z,15.90
2018-09-15T06:26:32.950Z,16.00
2018-09-15T06:29:01.148Z,16.00
2018-09-15T06:31:29.383Z,16.10
2018-09-15T06:33:57.576Z,16.20
2018-09-15T06:36:25.788Z,16.20
2018-09-15T06:38:54.238Z,16.30
2018-09-15T06:41:22.470Z,16.30
2018-09-15T06:43:50.697Z,16.30
2018-09-15T06:46:18.944Z,16.40
2018-09-15T06:48:47.379Z,16.50
2018-09-15T06:51:15.934Z,16.50
2018-09-15T06:53:44.147Z,16.50
2018-09-15T06:56:12.407Z,16.60
2018-09-15T06:58:40.859Z,16.70
2018-09-15T07:01:09.173Z,16.80
2018-09-15T07:03:37.936Z,16.90
2018-09-15T07:06:06.365Z,16.90
2018-09-15T07:08:34.609Z,17.00
2018-09-15T07:11:02.852Z,17.00
2018-09-15T07:13:31.101Z,17.00
2018-09-15T07:15:59.319Z,16.90
2018-09-15T07:18:27.597Z,16.90
2018-09-15T07:20:55.852Z,17.00
2018-09-15T07:23:24.096Z,17.00
2018-09-15T07:25:52.660Z,17.00
2018-09-15T07:28:20.801Z,17.10
2018-09-15T07:30:49.097Z,17.10
2018-09-15T07:33:17.368Z,17.10
2018-09-15T07:35:45.575Z,17.00
2018-09-15T07:38:13.789Z,17.00
2018-09-15T07:40:42.152Z,17.00
2018-09-15T07:43:10.376Z,17.00
2018-09-15T07:45:38.587Z,17.10
2018-09-15T07:48:06.799Z,17.10
2018-09-15T07:50:35.169Z,17.00
2018-09-15T07:53:03.463Z,17.00
2018-09-15T07:55:31.765Z,16.90
2018-09-15T07:58:00.256Z,16.90
2018-09-15T08:00:28.241Z,16.90
2018-09-15T08:02:56.448Z,17.00
2018-09-15T08:05:24.664Z,17.10
2018-09-15T08:07:52.905Z,17.20
2018-09-15T08:10:21.114Z,17.20
2018-09-15T08:12:49.320Z,17.20
2018-09-15T08:15:17.561Z,17.20
2018-09-15T08:17:45.780Z,17.10
2018-09-15T08:20:14.022Z,17.10
2018-09-15T08:22:42.267Z,16.90
2018-09-15T08:25:10.678Z,16.90
2018-09-15T08:27:38.980Z,16.90
2018-09-15T08:30:07.254Z,16.90
2018-09-15T08:32:35.458Z,17.00
2018-09-15T08:35:03.692Z,17.20
2018-09-15T08:37:31.996Z,17.30
2018-09-15T08:40:00.188Z,17.40
2018-09-15T08:42:28.475Z,17.50
2018-09-15T08:44:56.733Z,17.50
2018-09-15T08:47:24.993Z,17.50
2018-09-15T08:49:53.210Z,17.70
2018-09-15T08:52:22.424Z,17.70
2018-09-15T08:54:50.692Z,17.90
2018-09-15T08:57:18.991Z,18.00
2018-09-15T08:59:47.352Z,18.10
2018-09-15T09:02:15.587Z,18.10
2018-09-15T09:04:44.738Z,18.20
2018-09-15T09:07:13.457Z,18.30
2018-09-15T09:09:42.265Z,18.30
2018-09-15T09:12:10.612Z,18.50
2018-09-15T09:14:39.429Z,18.60
2018-09-15T09:17:07.657Z,18.80
2018-09-15T09:19:35.988Z,18.90
2018-09-15T09:22:04.192Z,18.90
2018-09-15T09:24:32.411Z,18.80
2018-09-15T09:27:01.029Z,18.70
2018-09-15T09:29:30.271Z,18.70
2018-09-15T09:31:58.493Z,18.60
2018-09-15T09:34:26.925Z,18.50
2018-09-15T09:36:55.123Z,18.60
2018-09-15T09:39:23.327Z,18.70
2018-09-15T09:41:51.801Z,18.90
2018-09-15T09:44:20.566Z,19.10
2018-09-15T09:46:48.960Z,19.40
2018-09-15T09:49:17.173Z,19.60
2018-09-15T09:51:45.988Z,19.90
2018-09-15T09:54:14.280Z,20.40
2018-09-15T09:56:42.667Z,20.70
2018-09-15T09:59:11.629Z,20.80
2018-09-15T10:01:45.960Z,21.00
2018-09-15T10:04:24.480Z,20.80
2018-09-15T10:06:53.172Z,20.70
2018-09-15T10:09:21.386Z,20.50
2018-09-15T10:11:49.640Z,20.20
2018-09-15T10:14:18.862Z,19.90
2018-09-15T10:16:47.373Z,19.80
2018-09-15T10:19:15.572Z,19.60
2018-09-15T10:21:43.827Z,19.40
2018-09-15T10:24:12.758Z,19.30
2018-09-15T10:26:41.218Z,19.20
2018-09-15T10:29:09.422Z,19.00
2018-09-15T10:31:37.981Z,18.80
2018-09-15T10:34:06.201Z,18.70
2018-09-15T10:36:38.704Z,18.50
2018-09-15T10:39:08.460Z,18.40
2018-09-15T10:41:36.661Z,18.40
2018-09-15T10:44:05.332Z,18.50
2018-09-15T10:46:33.804Z,18.50
2018-09-15T10:49:02.128Z,18.70
2018-09-15T10:51:30.400Z,19.00
2018-09-15T10:53:58.845Z,19.30
2018-09-15T10:56:27.166Z,19.60
2018-09-15T10:58:55.722Z,19.70
2018-09-15T11:01:23.963Z,19.80
2018-09-15T11:03:52.325Z,19.70
2018-09-15T11:06:20.601Z,19.60
2018-09-15T11:08:48.880Z,19.80
2018-09-15T11:11:17.080Z,19.70
2018-09-15T11:13:45.665Z,19.80
2018-09-15T11:16:13.890Z,19.90
2018-09-15T11:18:42.216Z,20.00
2018-09-15T11:21:10.465Z,20.20
2018-09-15T11:23:38.709Z,20.50
2018-09-15T11:26:07.535Z,20.80
2018-09-15T11:28:36.120Z,20.90
2018-09-15T11:31:04.412Z,20.90
2018-09-15T11:33:32.775Z,20.90
2018-09-15T11:36:01.011Z,20.90
2018-09-15T11:38:29.462Z,20.80
2018-09-15T11:40:57.671Z,20.80
2018-09-15T11:43:25.896Z,20.60
2018-09-15T11:45:54.117Z,20.50
2018-09-15T11:48:22.328Z,20.30
2018-09-15T11:50:50.571Z,20.20
2018-09-15T11:53:18.766Z,20.10
2018-09-15T11:55:46.994Z,20.10
2018-09-15T11:58:15.234Z,20.20
2018-09-15T12:01:00.323Z,20.50
2018-09-15T12:03:29.220Z,20.80
2018-09-15T12:05:58.055Z,21.20
2018-09-15T12:08:26.244Z,21.50
2018-09-15T12:10:54.453Z,21.70
2018-09-15T12:13:22.680Z,21.70
2018-09-15T12:15:50.889Z,21.60
2018-09-15T12:18:19.120Z,21.40
2018-09-15T12:20:47.307Z,21.10
2018-09-15T12:23:15.510Z,20.90
2018-09-15T12:25:43.709Z,20.70
2018-09-15T12:28:11.920Z,20.60
2018-09-15T12:30:40.127Z,20.70
2018-09-15T12:33:08.360Z,20.80
2018-09-15T12:35:36.585Z,21.00
2018-09-15T12:38:04.861Z,21.00
2018-09-15T12:40:33.099Z,20.90
2018-09-15T12:43:01.335Z,20.80
2018-09-15T12:45:29.577Z,20.60
2018-09-15T12:47:57.773Z,20.30
2018-09-15T12:50:26.061Z,20.10
2018-09-15T12:52:54.274Z,20.10
2018-09-15T12:55:22.459Z,20.10
2018-09-15T12:57:50.725Z,20.00
2018-09-15T13:00:18.885Z,19.90
2018-09-15T13:02:47.112Z,19.80
2018-09-15T13:05:15.317Z,19.80
2018-09-15T13:07:43.516Z,19.70
2018-09-15T13:10:11.752Z,19.80
2018-09-15T13:12:39.960Z,19.80
2018-09-15T13:15:08.173Z,19.90
2018-09-15T13:17:36.562Z,20.10
2018-09-15T13:20:07.392Z,20.30
2018-09-15T13:22:35.641Z,20.60
2018-09-15T13:25:04.117Z,20.80
2018-09-15T13:27:32.533Z,21.10
2018-09-15T13:30:01.071Z,21.20
2018-09-15T13:32:29.362Z,21.20
2018-09-15T13:34:57.752Z,21.20
2018-09-15T13:37:26.029Z,21.20
2018-09-15T13:39:54.605Z,21.00
2018-09-15T13:42:22.978Z,21.00
2018-09-15T13:44:51.931Z,21.00
2018-09-15T13:47:20.476Z,21.10
2018-09-15T13:49:48.694Z,21.20
2018-09-15T13:52:17.126Z,21.30
2018-09-15T13:54:45.441Z,21.20
2018-09-15T13:57:13.738Z,21.20
2018-09-15T13:59:42.245Z,21.10
2018-09-15T14:02:10.476Z,21.10
2018-09-15T14:04:38.921Z,21.00
2018-09-15T14:07:07.345Z,20.80
2018-09-15T14:09:43.291Z,20.70
2018-09-15T14:12:04.158Z,20.50
2018-09-15T14:14:32.434Z,20.30
2018-09-15T14:17:01.421Z,20.20
2018-09-15T14:19:29.600Z,20.10
2018-09-15T14:21:57.795Z,20.10
2018-09-15T14:24:26.027Z,20.10
2018-09-15T14:26:54.533Z,20.20
2018-09-15T14:29:22.724Z,20.20
2018-09-15T14:31:50.953Z,20.20
2018-09-15T14:34:19.147Z,20.30
2018-09-15T14:36:47.864Z,20.30
2018-09-15T14:39:16.546Z,20.30
2018-09-15T14:41:44.825Z,20.20
2018-09-15T14:44:13.619Z,20.10
2018-09-15T14:46:42.201Z,20.00
2018-09-15T14:49:10.599Z,20.10
2018-09-15T14:51:38.974Z,20.30
2018-09-15T14:54:07.739Z,20.40
2018-09-15T14:56:36.095Z,20.50
2018-09-15T14:59:04.481Z,20.50
2018-09-15T15:01:33.874Z,20.50
2018-09-15T15:04:04.595Z,20.50
2018-09-15T15:06:33.118Z,20.30
2018-09-15T15:09:01.668Z,20.20
2018-09-15T15:11:29.916Z,20.00
2018-09-15T15:13:58.133Z,19.90
2018-09-15T15:16:26.386Z,19.80
2018-09-15T15:18:54.792Z,19.90
2018-09-15T15:21:23.004Z,19.90
2018-09-15T15:23:51.514Z,19.90
2018-09-15T15:26:20.135Z,19.90
2018-09-15T15:28:48.364Z,20.00
2018-09-15T15:31:16.936Z,20.00
2018-09-15T15:33:46.141Z,20.10
2018-09-15T15:36:15.602Z,20.10
2018-09-15T15:38:44.700Z,20.10
2018-09-15T15:41:13.325Z,20.10
2018-09-15T15:43:41.683Z,20.00
2018-09-15T15:46:09.881Z,20.00
2018-09-15T15:48:38.759Z,20.10
2018-09-15T15:51:08.655Z,20.10
2018-09-15T15:53:37.099Z,20.10
2018-09-15T15:56:05.524Z,20.10
2018-09-15T15:58:34.344Z,20.10
2018-09-15T16:01:03.399Z,20.00
2018-09-15T16:03:32.221Z,19.90
2018-09-15T16:06:01.129Z,19.80
2018-09-15T16:08:29.592Z,19.70
2018-09-15T16:10:58.100Z,19.60
2018-09-15T16:13:26.580Z,19.60
2018-09-15T16:15:55.011Z,19.50
2018-09-15T16:18:23.625Z,19.40
2018-09-15T16:20:51.918Z,19.30
2018-09-15T16:23:20.459Z,19.20
2018-09-15T16:25:49.077Z,19.20
2018-09-15T16:28:17.361Z,19.20
2018-09-15T16:30:45.799Z,19.10
2018-09-15T16:33:14.363Z,19.10
2018-09-15T16:35:42.905Z,19.00
2018-09-15T16:38:12.819Z,19.00
2018-09-15T16:40:41.342Z,19.00
2018-09-15T16:43:09.841Z,19.00
2018-09-15T16:45:38.061Z,19.00
2018-09-15T16:48:06.317Z,19.00
2018-09-15T16:50:34.579Z,19.00
2018-09-15T16:53:02.779Z,18.90
2018-09-15T16:55:30.984Z,18.90
2018-09-15T16:57:59.205Z,18.70
2018-09-15T17:00:27.500Z,18.60
2018-09-15T17:02:56.769Z,18.50
2018-09-15T17:05:25.243Z,18.30
2018-09-15T17:07:53.578Z,18.30
2018-09-15T17:10:23.665Z,18.20
2018-09-15T17:12:53.605Z,18.10
2018-09-15T17:15:21.953Z,18.00
2018-09-15T17:17:50.209Z,17.90
2018-09-15T17:20:21.897Z,17.90
2018-09-15T17:22:51.245Z,17.80
2018-09-15T17:25:19.515Z,17.80
2018-09-15T17:27:47.769Z,17.70
2018-09-15T17:30:16.044Z,17.70
2018-09-15T17:32:45.717Z,17.60
2018-09-15T17:35:15.019Z,17.60
2018-09-15T17:37:43.367Z,17.50
2018-09-15T17:40:11.685Z,17.50
2018-09-15T17:42:39.953Z,17.50
2018-09-15T17:45:08.363Z,17.50
2018-09-15T17:47:36.584Z,17.50
2018-09-15T17:50:06.588Z,17.60
2018-09-15T17:52:35.093Z,17.60
2018-09-15T17:55:03.414Z,17.50
2018-09-15T17:57:32.921Z,17.50
2018-09-15T18:00:05.970Z,17.40
2018-09-15T18:02:38.481Z,17.30
2018-09-15T18:05:07.481Z,17.30
2018-09-15T18:07:37.957Z,17.20
2018-09-15T18:10:11.077Z,17.10
2018-09-15T18:12:40.564Z,16.90
2018-09-15T18:15:13.089Z,16.90
2018-09-15T18:17:42.434Z,16.80
2018-09-15T18:20:12.094Z,16.70
2018-09-15T18:22:41.707Z,16.60
2018-09-15T18:25:09.990Z,16.60
2018-09-15T18:27:41.043Z,16.60
2018-09-15T18:30:09.686Z,16.40
2018-09-15T18:32:39.058Z,16.40
2018-09-15T18:35:08.741Z,16.30
2018-09-15T18:37:37.441Z,16.30
2018-09-15T18:40:07.294Z,16.30
2018-09-15T18:42:37.019Z,16.30
2018-09-15T18:45:08.077Z,16.30
2018-09-15T18:47:36.321Z,16.30
2018-09-15T18:50:11.458Z,16.30
2018-09-15T18:52:40.241Z,16.20
2018-09-15T18:55:08.725Z,16.20
2018-09-15T18:57:39.418Z,16.20
2018-09-15T19:00:08.675Z,16.30
2018-09-15T19:02:39.661Z,16.20
2018-09-15T19:05:10.011Z,16.10
2018-09-15T19:07:41.186Z,16.10
2018-09-15T19:10:12.735Z,16.00
2018-09-15T19:12:44.946Z,15.90
2018-09-15T19:15:15.509Z,15.80
2018-09-15T19:17:45.431Z,15.70
2018-09-15T19:20:14.726Z,15.60
2018-09-15T19:22:45.985Z,15.60
2018-09-15T19:25:17.112Z,15.60
2018-09-15T19:27:45.765Z,15.50
2018-09-15T19:30:15.906Z,15.40
2018-09-15T19:32:46.014Z,15.30
2018-09-15T19:35:14.937Z,15.30
2018-09-15T19:37:43.485Z,15.20
2018-09-15T19:40:14.735Z,15.10
2018-09-15T19:42:43.344Z,15.00
2018-09-15T19:45:12.220Z,14.90
2018-09-15T19:47:40.918Z,14.90
2018-09-15T19:50:09.186Z,14.80
2018-09-15T19:52:37.755Z,14.80
2018-09-15T19:55:06.130Z,14.80
2018-09-15T19:57:34.357Z,14.80
2018-09-15T20:00:03.431Z,14.80
2018-09-15T20:02:32.810Z,14.80
2018-09-15T20:05:01.695Z,14.70
2018-09-15T20:07:30.141Z,14.60
2018-09-15T20:09:59.596Z,14.60
2018-09-15T20:12:31.460Z,14.50
2018-09-15T20:14:59.779Z,14.50
2018-09-15T20:17:27.024Z,14.40
2018-09-15T20:19:54.258Z,14.40
2018-09-15T20:22:23.113Z,14.30
2018-09-15T20:24:52.921Z,14.20
2018-09-15T20:27:22.220Z,14.10
2018-09-15T20:29:51.874Z,14.10
2018-09-15T20:32:21.022Z,14.00
2018-09-15T20:34:49.570Z,13.90
2018-09-15T20:37:18.213Z,13.90
2018-09-15T20:39:46.809Z,13.90
2018-09-15T20:42:19.228Z,13.80
2018-09-15T20:44:48.166Z,13.80
2018-09-15T20:47:16.610Z,13.70
2018-09-15T20:49:45.289Z,13.70
2018-09-15T20:52:17.414Z,13.70
2018-09-15T20:54:46.865Z,13.70
2018-09-15T20:57:16.451Z,13.60
2018-09-15T20:59:46.932Z,13.60
2018-09-15T21:02:17.414Z,13.50
2018-09-15T21:04:48.523Z,13.40
2018-09-15T21:07:20.106Z,13.30
2018-09-15T21:09:51.059Z,13.20
2018-09-15T21:12:21.036Z,13.20
2018-09-15T21:14:51.553Z,13.10
2018-09-15T21:17:21.566Z,13.10
2018-09-15T21:19:50.667Z,13.10
2018-09-15T21:22:20.869Z,13.10
2018-09-15T21:24:49.637Z,13.00
2018-09-15T21:27:19.253Z,13.00
2018-09-15T21:29:48.773Z,12.90
2018-09-15T21:32:18.757Z,12.90
2018-09-15T21:34:47.130Z,12.80
2018-09-15T21:37:18.621Z,12.90
2018-09-15T21:39:51.716Z,12.90
2018-09-15T21:42:24.969Z,12.80
2018-09-15T21:44:53.640Z,12.80
2018-09-15T21:47:26.714Z,12.80
2018-09-15T21:49:56.445Z,12.80
2018-09-15T21:52:26.342Z,12.80
2018-09-15T21:54:54.659Z,12.80
2018-09-15T21:57:23.065Z,12.70
2018-09-15T21:59:52.098Z,12.70
2018-09-15T22:02:22.876Z,12.60
2018-09-15T22:04:52.851Z,12.60
2018-09-15T22:07:21.383Z,12.50
2018-09-15T22:09:50.400Z,12.50
2018-09-15T22:12:19.766Z,12.50
2018-09-15T22:14:52.011Z,12.50
2018-09-15T22:17:23.371Z,12.50
2018-09-15T22:19:52.693Z,12.50
2018-09-15T22:22:23.540Z,12.40
2018-09-15T22:24:52.719Z,12.40
2018-09-15T22:27:21.333Z,12.40
2018-09-15T22:29:50.086Z,12.30
2018-09-15T22:32:21.266Z,12.20
2018-09-15T22:34:49.515Z,12.10
2018-09-15T22:37:17.799Z,12.10
2018-09-15T22:39:46.009Z,12.00
2018-09-15T22:42:14.695Z,12.00
2018-09-15T22:44:42.948Z,12.00
2018-09-15T22:47:11.344Z,12.00
2018-09-15T22:49:39.597Z,12.10
2018-09-15T22:52:08.537Z,12.00
2018-09-15T22:54:37.384Z,12.10
2018-09-15T22:57:05.640Z,12.10
2018-09-15T22:59:34.096Z,12.10
2018-09-15T23:02:03.307Z,12.10
2018-09-15T23:04:31.556Z,12.30
2018-09-15T23:06:59.847Z,12.40
2018-09-15T23:09:28.549Z,12.40
2018-09-15T23:11:56.785Z,12.50
2018-09-15T23:14:25.096Z,12.40
2018-09-15T23:16:53.350Z,12.40
2018-09-15T23:19:22.430Z,12.30
2018-09-15T23:21:50.693Z,12.20
2018-09-15T23:26:59.447Z,12.00
2018-09-15T23:29:27.757Z,12.00
2018-09-15T23:31:56.118Z,12.00
2018-09-15T23:34:25.234Z,11.90
2018-09-15T23:36:53.535Z,11.90
2018-09-15T23:39:22.276Z,11.80
2018-09-15T23:41:50.815Z,11.70
2018-09-15T23:44:19.052Z,11.70
2018-09-15T23:46:47.260Z,11.60
2018-09-15T23:49:15.584Z,11.50
2018-09-15T23:51:43.875Z,11.50
2018-09-15T23:54:12.083Z,11.40
2018-09-15T23:56:41.425Z,11.40
2018-09-15T23:59:09.629Z,11.40
